sensor_id;sensor_type;location;lat;lon;timestamp;P1;durP1;ratioP1;P2;durP2;ratioP2
18503;SDS011;9381;54.244;10.074;2023-06-22T00:01:52;5.45;;;4.60;;
18503;SDS011;9381;54.244;10.074;2023-06-22T00:06:52;5.03;;;4.53;;
18503;SDS011;9381;54.244;10.074;2023-06-22T00:11:52;6.77;;;4.67;;
18503;SDS011;9381;54.244;10.074;2023-06-22T00:16:53;5.57;;;4.63;;
18503;SDS011;9381;54.244;10.074;2023-06-22T00:21:57;5.80;;;5.00;;
18503;SDS011;9381;54.244;10.074;2023-06-22T00:27:00;5.30;;;4.70;;
18503;SDS011;9381;54.244;10.074;2023-06-22T00:32:00;6.10;;;4.97;;
18503;SDS011;9381;54.244;10.074;2023-06-22T00:37:00;5.53;;;4.73;;
18503;SDS011;9381;54.244;10.074;2023-06-22T00:42:01;5.73;;;4.40;;
18503;SDS011;9381;54.244;10.074;2023-06-22T00:47:02;6.23;;;4.60;;
18503;SDS011;9381;54.244;10.074;2023-06-22T00:52:03;7.27;;;5.47;;
18503;SDS011;9381;54.244;10.074;2023-06-22T00:57:03;7.93;;;5.57;;
18503;SDS011;9381;54.244;10.074;2023-06-22T01:02:04;6.27;;;5.30;;
18503;SDS011;9381;54.244;10.074;2023-06-22T01:07:34;6.87;;;5.00;;
18503;SDS011;9381;54.244;10.074;2023-06-22T01:12:40;5.27;;;4.77;;
18503;SDS011;9381;54.244;10.074;2023-06-22T01:17:44;7.60;;;4.67;;
18503;SDS011;9381;54.244;10.074;2023-06-22T01:22:51;6.23;;;4.60;;
18503;SDS011;9381;54.244;10.074;2023-06-22T01:33:37;9.37;;;7.40;;
18503;SDS011;9381;54.244;10.074;2023-06-22T01:38:39;7.47;;;6.37;;
18503;SDS011;9381;54.244;10.074;2023-06-22T01:43:39;9.03;;;6.50;;
18503;SDS011;9381;54.244;10.074;2023-06-22T01:48:41;7.30;;;5.83;;
18503;SDS011;9381;54.244;10.074;2023-06-22T01:53:41;10.13;;;7.50;;
18503;SDS011;9381;54.244;10.074;2023-06-22T01:58:44;6.97;;;6.07;;
18503;SDS011;9381;54.244;10.074;2023-06-22T02:03:53;6.67;;;5.90;;
18503;SDS011;9381;54.244;10.074;2023-06-22T02:09:08;9.27;;;6.77;;
18503;SDS011;9381;54.244;10.074;2023-06-22T02:14:11;8.77;;;6.77;;
18503;SDS011;9381;54.244;10.074;2023-06-22T02:19:13;7.57;;;6.33;;
18503;SDS011;9381;54.244;10.074;2023-06-22T02:24:15;8.60;;;6.67;;
18503;SDS011;9381;54.244;10.074;2023-06-22T02:29:16;9.43;;;6.50;;
18503;SDS011;9381;54.244;10.074;2023-06-22T02:34:16;8.38;;;6.00;;
18503;SDS011;9381;54.244;10.074;2023-06-22T02:39:19;10.40;;;7.40;;
18503;SDS011;9381;54.244;10.074;2023-06-22T02:44:19;9.13;;;7.23;;
18503;SDS011;9381;54.244;10.074;2023-06-22T02:49:20;9.13;;;7.00;;
18503;SDS011;9381;54.244;10.074;2023-06-22T02:54:21;11.73;;;7.00;;
18503;SDS011;9381;54.244;10.074;2023-06-22T02:59:21;9.03;;;7.37;;
18503;SDS011;9381;54.244;10.074;2023-06-22T03:04:23;9.90;;;7.00;;
18503;SDS011;9381;54.244;10.074;2023-06-22T03:09:23;7.50;;;6.70;;
18503;SDS011;9381;54.244;10.074;2023-06-22T03:14:24;8.33;;;7.43;;
18503;SDS011;9381;54.244;10.074;2023-06-22T03:19:24;8.60;;;6.97;;
18503;SDS011;9381;54.244;10.074;2023-06-22T03:24:24;8.43;;;7.18;;
18503;SDS011;9381;54.244;10.074;2023-06-22T03:29:25;8.07;;;6.47;;
18503;SDS011;9381;54.244;10.074;2023-06-22T03:34:25;11.30;;;7.60;;
18503;SDS011;9381;54.244;10.074;2023-06-22T03:39:26;9.07;;;7.30;;
18503;SDS011;9381;54.244;10.074;2023-06-22T03:44:26;10.57;;;7.00;;
18503;SDS011;9381;54.244;10.074;2023-06-22T03:49:27;11.77;;;10.48;;
18503;SDS011;9381;54.244;10.074;2023-06-22T03:54:28;19.50;;;12.33;;
18503;SDS011;9381;54.244;10.074;2023-06-22T03:59:29;13.37;;;10.67;;
18503;SDS011;9381;54.244;10.074;2023-06-22T04:04:29;8.93;;;7.50;;
18503;SDS011;9381;54.244;10.074;2023-06-22T04:09:29;13.00;;;9.37;;
18503;SDS011;9381;54.244;10.074;2023-06-22T04:14:30;11.52;;;9.00;;
18503;SDS011;9381;54.244;10.074;2023-06-22T04:19:30;10.02;;;8.32;;
18503;SDS011;9381;54.244;10.074;2023-06-22T04:24:30;9.60;;;8.50;;
18503;SDS011;9381;54.244;10.074;2023-06-22T04:29:31;11.90;;;9.23;;
18503;SDS011;9381;54.244;10.074;2023-06-22T04:34:31;13.37;;;9.83;;
18503;SDS011;9381;54.244;10.074;2023-06-22T04:39:32;13.43;;;9.33;;
18503;SDS011;9381;54.244;10.074;2023-06-22T04:44:32;15.07;;;11.88;;
18503;SDS011;9381;54.244;10.074;2023-06-22T04:49:32;12.13;;;10.53;;
18503;SDS011;9381;54.244;10.074;2023-06-22T04:54:33;13.53;;;10.17;;
18503;SDS011;9381;54.244;10.074;2023-06-22T04:59:34;13.53;;;11.23;;
18503;SDS011;9381;54.244;10.074;2023-06-22T05:04:35;12.63;;;9.47;;
18503;SDS011;9381;54.244;10.074;2023-06-22T05:09:38;14.20;;;9.37;;
18503;SDS011;9381;54.244;10.074;2023-06-22T05:14:38;11.40;;;9.93;;
18503;SDS011;9381;54.244;10.074;2023-06-22T05:19:39;10.27;;;9.20;;
18503;SDS011;9381;54.244;10.074;2023-06-22T05:24:45;12.90;;;9.77;;
18503;SDS011;9381;54.244;10.074;2023-06-22T05:29:45;11.37;;;9.00;;
18503;SDS011;9381;54.244;10.074;2023-06-22T05:34:46;11.20;;;9.10;;
18503;SDS011;9381;54.244;10.074;2023-06-22T05:39:46;11.70;;;8.47;;
18503;SDS011;9381;54.244;10.074;2023-06-22T05:44:46;8.50;;;7.50;;
18503;SDS011;9381;54.244;10.074;2023-06-22T05:49:47;11.50;;;8.63;;
18503;SDS011;9381;54.244;10.074;2023-06-22T05:54:47;10.50;;;7.37;;
18503;SDS011;9381;54.244;10.074;2023-06-22T05:59:47;7.63;;;6.25;;
18503;SDS011;9381;54.244;10.074;2023-06-22T06:04:48;10.50;;;7.00;;
18503;SDS011;9381;54.244;10.074;2023-06-22T06:09:48;10.60;;;6.87;;
18503;SDS011;9381;54.244;10.074;2023-06-22T06:14:48;7.37;;;6.57;;
18503;SDS011;9381;54.244;10.074;2023-06-22T06:19:48;8.83;;;6.73;;
18503;SDS011;9381;54.244;10.074;2023-06-22T06:24:49;8.50;;;5.90;;
18503;SDS011;9381;54.244;10.074;2023-06-22T06:29:49;8.27;;;5.20;;
18503;SDS011;9381;54.244;10.074;2023-06-22T06:34:50;6.13;;;4.77;;
18503;SDS011;9381;54.244;10.074;2023-06-22T06:39:50;7.10;;;5.70;;
18503;SDS011;9381;54.244;10.074;2023-06-22T06:44:50;6.80;;;4.73;;
18503;SDS011;9381;54.244;10.074;2023-06-22T06:49:51;7.57;;;5.63;;
18503;SDS011;9381;54.244;10.074;2023-06-22T06:54:51;6.50;;;4.30;;
18503;SDS011;9381;54.244;10.074;2023-06-22T06:59:52;6.67;;;4.63;;
18503;SDS011;9381;54.244;10.074;2023-06-22T07:04:52;5.38;;;4.60;;
18503;SDS011;9381;54.244;10.074;2023-06-22T07:09:52;5.53;;;4.00;;
18503;SDS011;9381;54.244;10.074;2023-06-22T07:14:53;5.77;;;3.80;;
18503;SDS011;9381;54.244;10.074;2023-06-22T07:19:53;3.57;;;3.27;;
18503;SDS011;9381;54.244;10.074;2023-06-22T07:24:53;3.65;;;3.33;;
18503;SDS011;9381;54.244;10.074;2023-06-22T07:29:54;5.80;;;3.47;;
18503;SDS011;9381;54.244;10.074;2023-06-22T07:34:55;4.80;;;3.60;;
18503;SDS011;9381;54.244;10.074;2023-06-22T07:39:55;5.23;;;3.67;;
18503;SDS011;9381;54.244;10.074;2023-06-22T07:44:58;4.87;;;3.40;;
18503;SDS011;9381;54.244;10.074;2023-06-22T07:49:59;3.60;;;3.27;;
18503;SDS011;9381;54.244;10.074;2023-06-22T07:55:01;3.17;;;2.87;;
18503;SDS011;9381;54.244;10.074;2023-06-22T08:00:03;4.60;;;3.53;;
18503;SDS011;9381;54.244;10.074;2023-06-22T08:05:15;4.13;;;3.10;;
18503;SDS011;9381;54.244;10.074;2023-06-22T08:10:17;4.27;;;3.10;;
18503;SDS011;9381;54.244;10.074;2023-06-22T08:15:18;4.80;;;3.17;;
18503;SDS011;9381;54.244;10.074;2023-06-22T08:20:18;3.13;;;2.83;;
18503;SDS011;9381;54.244;10.074;2023-06-22T08:25:19;3.53;;;2.73;;
18503;SDS011;9381;54.244;10.074;2023-06-22T08:30:20;3.27;;;2.73;;
18503;SDS011;9381;54.244;10.074;2023-06-22T08:35:24;4.33;;;2.80;;
18503;SDS011;9381;54.244;10.074;2023-06-22T08:40:24;2.90;;;2.60;;
18503;SDS011;9381;54.244;10.074;2023-06-22T08:45:25;3.17;;;2.50;;
18503;SDS011;9381;54.244;10.074;2023-06-22T08:50:25;6.73;;;2.63;;
18503;SDS011;9381;54.244;10.074;2023-06-22T08:55:26;4.03;;;2.20;;
18503;SDS011;9381;54.244;10.074;2023-06-22T09:00:26;3.00;;;2.30;;
18503;SDS011;9381;54.244;10.074;2023-06-22T09:05:28;3.50;;;2.47;;
18503;SDS011;9381;54.244;10.074;2023-06-22T09:10:29;3.03;;;2.70;;
18503;SDS011;9381;54.244;10.074;2023-06-22T09:15:29;3.38;;;2.28;;
18503;SDS011;9381;54.244;10.074;2023-06-22T09:20:29;2.33;;;2.13;;
18503;SDS011;9381;54.244;10.074;2023-06-22T09:25:30;2.90;;;2.20;;
18503;SDS011;9381;54.244;10.074;2023-06-22T09:30:30;2.77;;;2.30;;
18503;SDS011;9381;54.244;10.074;2023-06-22T09:35:31;3.15;;;2.35;;
18503;SDS011;9381;54.244;10.074;2023-06-22T09:40:31;3.10;;;2.40;;
18503;SDS011;9381;54.244;10.074;2023-06-22T09:45:35;3.87;;;2.77;;
18503;SDS011;9381;54.244;10.074;2023-06-22T09:50:35;4.07;;;2.60;;
18503;SDS011;9381;54.244;10.074;2023-06-22T09:55:37;6.07;;;2.60;;
18503;SDS011;9381;54.244;10.074;2023-06-22T10:00:37;2.88;;;2.10;;
18503;SDS011;9381;54.244;10.074;2023-06-22T10:05:37;2.53;;;1.93;;
18503;SDS011;9381;54.244;10.074;2023-06-22T10:10:38;3.10;;;1.90;;
18503;SDS011;9381;54.244;10.074;2023-06-22T10:15:38;3.40;;;2.40;;
18503;SDS011;9381;54.244;10.074;2023-06-22T10:20:38;2.53;;;2.17;;
18503;SDS011;9381;54.244;10.074;2023-06-22T10:25:39;3.90;;;2.27;;
18503;SDS011;9381;54.244;10.074;2023-06-22T10:30:39;4.30;;;1.77;;
18503;SDS011;9381;54.244;10.074;2023-06-22T10:35:43;2.30;;;2.10;;
18503;SDS011;9381;54.244;10.074;2023-06-22T10:40:43;2.77;;;2.33;;
18503;SDS011;9381;54.244;10.074;2023-06-22T10:45:43;5.53;;;2.70;;
18503;SDS011;9381;54.244;10.074;2023-06-22T10:50:44;2.95;;;2.55;;
18503;SDS011;9381;54.244;10.074;2023-06-22T10:55:44;2.73;;;2.37;;
18503;SDS011;9381;54.244;10.074;2023-06-22T11:00:45;3.93;;;3.00;;
18503;SDS011;9381;54.244;10.074;2023-06-22T11:05:45;5.90;;;3.03;;
18503;SDS011;9381;54.244;10.074;2023-06-22T11:10:47;4.03;;;2.90;;
18503;SDS011;9381;54.244;10.074;2023-06-22T11:15:48;3.57;;;2.80;;
18503;SDS011;9381;54.244;10.074;2023-06-22T11:20:48;4.80;;;3.00;;
18503;SDS011;9381;54.244;10.074;2023-06-22T11:25:49;5.37;;;3.17;;
18503;SDS011;9381;54.244;10.074;2023-06-22T11:30:49;4.37;;;2.90;;
18503;SDS011;9381;54.244;10.074;2023-06-22T11:35:49;6.13;;;3.33;;
18503;SDS011;9381;54.244;10.074;2023-06-22T11:40:50;5.17;;;3.53;;
18503;SDS011;9381;54.244;10.074;2023-06-22T11:45:50;4.37;;;3.50;;
18503;SDS011;9381;54.244;10.074;2023-06-22T11:50:50;4.67;;;3.20;;
18503;SDS011;9381;54.244;10.074;2023-06-22T11:55:51;3.17;;;2.67;;
18503;SDS011;9381;54.244;10.074;2023-06-22T12:00:53;4.57;;;3.00;;
18503;SDS011;9381;54.244;10.074;2023-06-22T12:05:53;4.63;;;3.17;;
18503;SDS011;9381;54.244;10.074;2023-06-22T12:10:54;4.50;;;3.27;;
18503;SDS011;9381;54.244;10.074;2023-06-22T12:15:54;4.40;;;3.20;;
18503;SDS011;9381;54.244;10.074;2023-06-22T12:20:54;6.60;;;4.00;;
18503;SDS011;9381;54.244;10.074;2023-06-22T12:25:55;3.30;;;2.97;;
18503;SDS011;9381;54.244;10.074;2023-06-22T12:30:55;5.17;;;3.53;;
18503;SDS011;9381;54.244;10.074;2023-06-22T12:35:55;4.60;;;4.07;;
18503;SDS011;9381;54.244;10.074;2023-06-22T12:40:56;5.00;;;3.40;;
18503;SDS011;9381;54.244;10.074;2023-06-22T12:45:56;4.10;;;3.10;;
18503;SDS011;9381;54.244;10.074;2023-06-22T12:50:57;4.03;;;3.23;;
18503;SDS011;9381;54.244;10.074;2023-06-22T12:55:57;3.10;;;2.80;;
18503;SDS011;9381;54.244;10.074;2023-06-22T13:00:58;4.78;;;3.03;;
18503;SDS011;9381;54.244;10.074;2023-06-22T13:05:58;3.03;;;2.73;;
18503;SDS011;9381;54.244;10.074;2023-06-22T13:10:59;2.53;;;2.27;;
18503;SDS011;9381;54.244;10.074;2023-06-22T13:16:00;3.20;;;2.60;;
18503;SDS011;9381;54.244;10.074;2023-06-22T13:21:00;4.03;;;2.73;;
18503;SDS011;9381;54.244;10.074;2023-06-22T13:26:00;4.00;;;2.73;;
18503;SDS011;9381;54.244;10.074;2023-06-22T13:31:01;2.47;;;2.27;;
18503;SDS011;9381;54.244;10.074;2023-06-22T13:36:01;3.30;;;3.00;;
18503;SDS011;9381;54.244;10.074;2023-06-22T13:41:03;2.53;;;2.27;;
18503;SDS011;9381;54.244;10.074;2023-06-22T13:46:04;3.37;;;2.60;;
18503;SDS011;9381;54.244;10.074;2023-06-22T13:51:04;3.23;;;2.47;;
18503;SDS011;9381;54.244;10.074;2023-06-22T13:56:04;4.35;;;2.45;;
18503;SDS011;9381;54.244;10.074;2023-06-22T14:01:05;3.80;;;2.80;;
18503;SDS011;9381;54.244;10.074;2023-06-22T14:06:05;3.60;;;2.50;;
18503;SDS011;9381;54.244;10.074;2023-06-22T14:11:06;3.43;;;2.60;;
18503;SDS011;9381;54.244;10.074;2023-06-22T14:16:06;2.60;;;2.40;;
18503;SDS011;9381;54.244;10.074;2023-06-22T14:21:07;5.60;;;2.53;;
18503;SDS011;9381;54.244;10.074;2023-06-22T14:26:07;2.50;;;2.13;;
18503;SDS011;9381;54.244;10.074;2023-06-22T14:31:08;2.80;;;2.33;;
18503;SDS011;9381;54.244;10.074;2023-06-22T14:36:08;3.63;;;2.40;;
18503;SDS011;9381;54.244;10.074;2023-06-22T14:41:10;4.33;;;2.10;;
18503;SDS011;9381;54.244;10.074;2023-06-22T14:46:10;2.80;;;2.40;;
18503;SDS011;9381;54.244;10.074;2023-06-22T14:51:11;3.10;;;2.20;;
18503;SDS011;9381;54.244;10.074;2023-06-22T14:56:12;2.63;;;2.17;;
18503;SDS011;9381;54.244;10.074;2023-06-22T15:01:16;2.77;;;2.13;;
18503;SDS011;9381;54.244;10.074;2023-06-22T15:06:17;3.23;;;2.10;;
18503;SDS011;9381;54.244;10.074;2023-06-22T15:11:17;3.33;;;2.30;;
18503;SDS011;9381;54.244;10.074;2023-06-22T15:16:18;2.90;;;2.30;;
18503;SDS011;9381;54.244;10.074;2023-06-22T15:21:18;2.53;;;2.20;;
18503;SDS011;9381;54.244;10.074;2023-06-22T15:26:19;3.60;;;2.30;;
18503;SDS011;9381;54.244;10.074;2023-06-22T15:31:19;2.40;;;1.73;;
18503;SDS011;9381;54.244;10.074;2023-06-22T15:36:19;3.00;;;1.90;;
18503;SDS011;9381;54.244;10.074;2023-06-22T15:41:19;3.20;;;2.50;;
18503;SDS011;9381;54.244;10.074;2023-06-22T15:46:20;2.80;;;2.10;;
18503;SDS011;9381;54.244;10.074;2023-06-22T15:51:21;4.40;;;2.23;;
18503;SDS011;9381;54.244;10.074;2023-06-22T15:56:21;3.15;;;2.13;;
18503;SDS011;9381;54.244;10.074;2023-06-22T16:01:23;3.30;;;1.77;;
18503;SDS011;9381;54.244;10.074;2023-06-22T16:06:24;2.00;;;1.80;;
18503;SDS011;9381;54.244;10.074;2023-06-22T16:11:24;2.90;;;2.20;;
18503;SDS011;9381;54.244;10.074;2023-06-22T16:16:40;3.97;;;2.20;;
18503;SDS011;9381;54.244;10.074;2023-06-22T16:21:42;2.33;;;1.93;;
18503;SDS011;9381;54.244;10.074;2023-06-22T16:26:42;3.57;;;2.33;;
18503;SDS011;9381;54.244;10.074;2023-06-22T16:31:43;4.87;;;1.90;;
18503;SDS011;9381;54.244;10.074;2023-06-22T16:36:43;2.23;;;1.70;;
18503;SDS011;9381;54.244;10.074;2023-06-22T16:41:44;2.67;;;1.77;;
18503;SDS011;9381;54.244;10.074;2023-06-22T16:46:45;2.37;;;1.80;;
18503;SDS011;9381;54.244;10.074;2023-06-22T16:51:45;2.37;;;1.57;;
18503;SDS011;9381;54.244;10.074;2023-06-22T16:56:45;2.63;;;1.67;;
18503;SDS011;9381;54.244;10.074;2023-06-22T17:01:51;2.90;;;1.67;;
18503;SDS011;9381;54.244;10.074;2023-06-22T17:06:55;1.93;;;1.50;;
18503;SDS011;9381;54.244;10.074;2023-06-22T17:11:59;1.53;;;1.43;;
18503;SDS011;9381;54.244;10.074;2023-06-22T17:17:00;1.63;;;1.50;;
18503;SDS011;9381;54.244;10.074;2023-06-22T17:22:02;3.40;;;1.63;;
18503;SDS011;9381;54.244;10.074;2023-06-22T17:27:03;2.97;;;1.50;;
18503;SDS011;9381;54.244;10.074;2023-06-22T17:32:04;3.03;;;1.50;;
18503;SDS011;9381;54.244;10.074;2023-06-22T17:37:04;3.43;;;1.53;;
18503;SDS011;9381;54.244;10.074;2023-06-22T17:42:05;2.95;;;1.70;;
18503;SDS011;9381;54.244;10.074;2023-06-22T17:47:06;2.63;;;1.40;;
18503;SDS011;9381;54.244;10.074;2023-06-22T17:52:14;1.40;;;1.30;;
18503;SDS011;9381;54.244;10.074;2023-06-22T17:57:16;4.57;;;1.40;;
18503;SDS011;9381;54.244;10.074;2023-06-22T18:02:24;1.73;;;1.50;;
18503;SDS011;9381;54.244;10.074;2023-06-22T18:07:24;3.43;;;1.50;;
18503;SDS011;9381;54.244;10.074;2023-06-22T18:12:26;2.43;;;1.40;;
18503;SDS011;9381;54.244;10.074;2023-06-22T18:17:27;1.63;;;1.40;;
18503;SDS011;9381;54.244;10.074;2023-06-22T18:22:27;2.37;;;1.70;;
18503;SDS011;9381;54.244;10.074;2023-06-22T18:27:28;1.53;;;1.40;;
18503;SDS011;9381;54.244;10.074;2023-06-22T18:32:30;2.30;;;1.50;;
18503;SDS011;9381;54.244;10.074;2023-06-22T18:37:31;2.80;;;1.60;;
18503;SDS011;9381;54.244;10.074;2023-06-22T18:42:38;1.37;;;1.27;;
18503;SDS011;9381;54.244;10.074;2023-06-22T18:47:39;1.97;;;1.10;;
18503;SDS011;9381;54.244;10.074;2023-06-22T18:52:40;3.87;;;1.30;;
18503;SDS011;9381;54.244;10.074;2023-06-22T18:57:40;1.70;;;1.50;;
18503;SDS011;9381;54.244;10.074;2023-06-22T19:02:44;2.90;;;1.57;;
18503;SDS011;9381;54.244;10.074;2023-06-22T19:12:54;1.57;;;1.47;;
18503;SDS011;9381;54.244;10.074;2023-06-22T19:17:59;1.37;;;1.23;;
18503;SDS011;9381;54.244;10.074;2023-06-22T19:23:01;1.70;;;1.60;;
18503;SDS011;9381;54.244;10.074;2023-06-22T19:28:01;2.80;;;1.33;;
18503;SDS011;9381;54.244;10.074;2023-06-22T19:33:15;2.67;;;1.50;;
18503;SDS011;9381;54.244;10.074;2023-06-22T19:38:16;2.47;;;1.63;;
18503;SDS011;9381;54.244;10.074;2023-06-22T19:43:19;2.40;;;1.43;;
18503;SDS011;9381;54.244;10.074;2023-06-22T19:48:19;2.03;;;1.57;;
18503;SDS011;9381;54.244;10.074;2023-06-22T19:53:25;2.33;;;1.47;;
18503;SDS011;9381;54.244;10.074;2023-06-22T19:58:25;1.77;;;1.50;;
18503;SDS011;9381;54.244;10.074;2023-06-22T20:03:32;1.90;;;1.20;;
18503;SDS011;9381;54.244;10.074;2023-06-22T20:08:46;1.57;;;1.40;;
18503;SDS011;9381;54.244;10.074;2023-06-22T20:13:49;1.70;;;1.60;;
18503;SDS011;9381;54.244;10.074;2023-06-22T20:19:04;1.67;;;1.37;;
18503;SDS011;9381;54.244;10.074;2023-06-22T20:24:04;1.57;;;1.47;;
18503;SDS011;9381;54.244;10.074;2023-06-22T20:29:22;1.90;;;1.53;;
18503;SDS011;9381;54.244;10.074;2023-06-22T20:34:26;1.97;;;1.80;;
18503;SDS011;9381;54.244;10.074;2023-06-22T20:39:26;1.77;;;1.63;;
18503;SDS011;9381;54.244;10.074;2023-06-22T20:44:27;2.13;;;1.63;;
18503;SDS011;9381;54.244;10.074;2023-06-22T20:49:27;1.97;;;1.70;;
18503;SDS011;9381;54.244;10.074;2023-06-22T20:54:28;2.00;;;1.67;;
18503;SDS011;9381;54.244;10.074;2023-06-22T20:59:28;3.77;;;2.00;;
18503;SDS011;9381;54.244;10.074;2023-06-22T21:04:28;2.25;;;1.90;;
18503;SDS011;9381;54.244;10.074;2023-06-22T21:09:29;4.43;;;2.20;;
18503;SDS011;9381;54.244;10.074;2023-06-22T21:14:29;3.93;;;1.87;;
18503;SDS011;9381;54.244;10.074;2023-06-22T21:19:29;2.55;;;2.00;;
18503;SDS011;9381;54.244;10.074;2023-06-22T21:24:29;3.00;;;2.30;;
18503;SDS011;9381;54.244;10.074;2023-06-22T21:29:30;2.43;;;2.20;;
18503;SDS011;9381;54.244;10.074;2023-06-22T21:34:30;2.60;;;2.30;;
18503;SDS011;9381;54.244;10.074;2023-06-22T21:39:30;3.33;;;2.17;;
18503;SDS011;9381;54.244;10.074;2023-06-22T21:44:31;2.40;;;2.20;;
18503;SDS011;9381;54.244;10.074;2023-06-22T21:49:31;2.20;;;2.00;;
18503;SDS011;9381;54.244;10.074;2023-06-22T21:54:31;3.20;;;2.22;;
18503;SDS011;9381;54.244;10.074;2023-06-22T21:59:31;2.43;;;2.10;;
18503;SDS011;9381;54.244;10.074;2023-06-22T22:04:32;3.35;;;2.10;;
18503;SDS011;9381;54.244;10.074;2023-06-22T22:09:32;2.42;;;1.95;;
18503;SDS011;9381;54.244;10.074;2023-06-22T22:14:33;2.40;;;2.20;;
18503;SDS011;9381;54.244;10.074;2023-06-22T22:19:33;3.10;;;2.30;;
18503;SDS011;9381;54.244;10.074;2023-06-22T22:24:33;3.13;;;2.17;;
18503;SDS011;9381;54.244;10.074;2023-06-22T22:29:34;4.30;;;2.80;;
18503;SDS011;9381;54.244;10.074;2023-06-22T22:34:34;4.00;;;2.63;;
18503;SDS011;9381;54.244;10.074;2023-06-22T22:39:35;3.90;;;3.07;;
18503;SDS011;9381;54.244;10.074;2023-06-22T22:44:39;3.00;;;2.70;;
18503;SDS011;9381;54.244;10.074;2023-06-22T22:49:39;3.20;;;2.87;;
18503;SDS011;9381;54.244;10.074;2023-06-22T22:54:41;4.33;;;3.77;;
18503;SDS011;9381;54.244;10.074;2023-06-22T22:59:43;3.23;;;2.90;;
18503;SDS011;9381;54.244;10.074;2023-06-22T23:04:43;3.57;;;2.97;;
18503;SDS011;9381;54.244;10.074;2023-06-22T23:09:43;3.50;;;3.20;;
18503;SDS011;9381;54.244;10.074;2023-06-22T23:14:44;5.40;;;3.33;;
18503;SDS011;9381;54.244;10.074;2023-06-22T23:19:44;4.03;;;3.27;;
18503;SDS011;9381;54.244;10.074;2023-06-22T23:24:46;4.13;;;3.60;;
18503;SDS011;9381;54.244;10.074;2023-06-22T23:29:46;4.00;;;3.40;;
18503;SDS011;9381;54.244;10.074;2023-06-22T23:34:47;4.43;;;3.70;;
18503;SDS011;9381;54.244;10.074;2023-06-22T23:39:47;5.27;;;3.47;;
18503;SDS011;9381;54.244;10.074;2023-06-22T23:44:48;4.20;;;3.63;;
18503;SDS011;9381;54.244;10.074;2023-06-22T23:49:48;5.32;;;4.10;;
18503;SDS011;9381;54.244;10.074;2023-06-22T23:54:48;4.10;;;3.50;;
18503;SDS011;9381;54.244;10.074;2023-06-22T23:59:49;4.68;;;4.18;;
